Harrisville, MI

4:13 AM EDT on April 27, 2015 (GMT -0400)
KMIOSCOD3 | | Change Station
CLOSE
Current Station
Personal Weather Station
Location: On the Beach , North of Oscoda, MI
Elevation: 582 ft
Nearby Weather Stations

Elev 582 ft 44.51 °N, 83.32 °W | Updated 9 seconds ago

Overcast
Overcast
39.3 °F
Feels Like 35 °F
N
5.3
Wind Variable Wind from NNE
Gusts 11.1 mph

Today
High -- | Low -- °F
--% Chance of Precip.
Yesterday
High -- | Low -- °F
Precip. -- in
6:29 AM 8:33 PM
Waxing Gibbous, 63% visible
Pressure 29.95 in
Visibility 10.0 miles
Clouds Overcast 1900 ft
Windchill 35 °F
Dew Point 34 °F
Humidity 81%
Rainfall 0.00 in
Snow Depth Not available.
UV 0 out of 12
Pollen 9.80 out of 12
Air Quality Not available.
Flu Activity Regional
METAR KOSC 270754Z AUTO 36008KT 10SM OVC019 05/01 A2995 RMK AO2 T00480015

More Conditions Fewer Conditions

Pressure 29.95 in
Visibility 10.0 miles
Clouds Overcast 1900 ft
Windchill 35 °F
Dew Point 34 °F
Humidity 81%
Rainfall 0.00 in
Snow Depth Not available.
UV 0 out of 12
Pollen 9.80 out of 12
Air Quality Not available.
Flu Activity Regional
METAR KOSC 270754Z AUTO 36008KT 10SM OVC019 05/01 A2995 RMK AO2 T00480015

More Conditions Fewer Conditions

Nowcast | as of 4:00 am EDT on April 27, 2015

At 5 am...cloudy. Chance of sprinkles. Temperature 36. North winds 11 mph. At 7 am...cloudy. Chance of sprinkles. Temperature 38. Northwest winds 12 mph. At 9 am...cloudy. Temperature 41. North winds 12 mph. At 11 am...cloudy. Temperature 44. North winds 13 mph.

×

10-Day Weather Forecast

Almanac

Astronomy

Apr. 27, 2015 Rise Set
Actual Time
Civil Twilight
Nautical Twilight
Astronomical Twilight
Moon
Length of Visible Light
Length of Day
Tomorrow will be .
, % of the Moon is Illuminated

Today's Extremes

State Highs State Lows

Community

WunderPhotos

Upload Photos

1,817,277 photos uploaded!

WunderBlogs® & News

Nearby

Air Quality

  Air Quality AQ Index Pollutant
Not available.

Snow Depth

Station Depth Elevation

Earthquake Activity

City Distance Mag. Time & Date
Minimum magnitude displayed is 2.5.

Coastal Water Temperatures

Place Temperature

Stations

Nearby Weather Stations

Station Location Temp. Windchill Dew Point Humidity Wind Precip. Elev Updated Type